Lizton, Indiana
Current Conditions -  °F | °C
As of 3:53 PM on Sunday 23 Nov 2014 (Local Time) from KEYE Reporting Station
Moderate Rain Moderate Rain  
Wind Chill: 52°   Ceiling: 1000
Heat Index: 52°   Visibility: 3mi
Dew Point: 51°   Wind: 14mph
Humidity: 97%   Direction: 140°SE
Pressure: 29.53"   Gusts: 22mph
Location:  39.89°N, 86.54°W
Report Text: KEYE 232053Z AUTO 14012G19KT 3SM RA BR OVC010 11/11 A2953 RMK AO2 CIG 006V013 SLP001 P0013 60033 T01110106 56055
Loading
Personal Weather Stations






























Interactive Weather Map New forecast layout! Learn more

10-Day Weather Forecast

Advertisements
Track Severe Weather on mobile